ADDS METAR Data INFO
IDs: Format: Raw Decoded Include TAF

Data at: 0315 UTC 16 Dec 2017

KADC 160255Z AUTO 11006KT 1 1/2SM UP OVC011 M06/M07 A2963 RMK AO2 P0001
KADC 160235Z AUTO 12005KT 1 3/4SM UP OVC015 M06/M07 A2964 RMK AO2 P0001
KADC 160216Z AUTO 11005KT 2 1/2SM -SN BKN017 OVC022 M07/M07 A2965 RMK AO2
KADC 160155Z AUTO 12005KT 2SM -SN BKN015 BKN019 OVC033 M07/M08 A2965 RMK AO2
KADC 160135Z AUTO 12005KT 4SM -SN SCT017 SCT023 OVC030 M07/M08 A2966 RMK AO2
KADC 160115Z AUTO 11005KT 2 1/2SM -SN SCT017 BKN024 OVC034 M07/M08 A2966 RMK AO2
KADC 160055Z AUTO 11005KT 7SM UP SCT022 BKN034 OVC075 M07/M08 A2967 RMK AO2
KADC 160035Z AUTO 09004KT 4SM -SN SCT017 SCT028 OVC075 M06/M08 A2967 RMK AO2
KADC 160015Z AUTO 12004KT 5SM -SN SCT017 BKN026 OVC075 M06/M08 A2967 RMK AO2
KADC 152355Z AUTO 12004KT 7SM UP SCT014 BKN043 OVC110 M06/M08 A2967 RMK AO2
KADC 152335Z AUTO 13005KT 5SM -SN SCT045 BKN060 OVC110 M06/M08 A2968 RMK AO2
KADC 152315Z AUTO 15005KT 10SM UP BKN027 OVC070 M06/M08 A2968 RMK AO2
KADC 152255Z AUTO 14003KT 7SM -SN SCT014 OVC029 M06/M08 A2968 RMK AO2
KADC 152235Z AUTO 15004KT 7SM -SN OVC014 M06/M08 A2969 RMK AO2
KADC 152215Z AUTO 16004KT 10SM UP OVC012 M06/M09 A2969 RMK AO2
KADC 152156Z AUTO 16005KT 10SM UP OVC014 M06/M09 A2969 RMK AO2
KADC 152135Z AUTO 16005KT 10SM UP OVC014 M06/M09 A2970 RMK AO2
KADC 152115Z AUTO 16006KT 10SM OVC018 M06/M09 A2970 RMK AO2
KADC 152055Z AUTO 16005KT 10SM OVC018 M06/M09 A2971 RMK AO2
KADC 152035Z AUTO 16005KT 10SM OVC020 M06/M10 A2971 RMK AO2
KADC 152015Z AUTO 14004KT 10SM OVC020 M07/M10 A2972 RMK AO2
KADC 151955Z AUTO 00000KT 10SM OVC020 M07/M10 A2973 RMK AO2
KADC 151935Z AUTO 13003KT 10SM OVC022 M07/M11 A2973 RMK AO2
KADC 151915Z AUTO 14003KT 10SM OVC024 M07/M11 A2974 RMK AO2
KADC 151856Z AUTO 00000KT 10SM OVC024 M07/M11 A2975 RMK AO2
KADC 151835Z AUTO 13003KT 10SM OVC026 M08/M11 A2977 RMK AO2
KADC 151815Z AUTO 00000KT 10SM OVC028 M08/M11 A2979 RMK AO2
KADC 151755Z AUTO 00000KT 10SM OVC030 M08/M11 A2980 RMK AO2
KADC 151735Z AUTO 00000KT 10SM OVC032 M08/M11 A2980 RMK AO2
KADC 151715Z AUTO 00000KT 10SM OVC034 M08/M11 A2981 RMK AO2
KADC 151656Z AUTO 00000KT 10SM OVC036 M09/M11 A2982 RMK AO2
KADC 151635Z AUTO 00000KT 10SM OVC038 M09/M12 A2984 RMK AO2
KADC 151615Z AUTO 00000KT 10SM BKN040 M09/M12 A2984 RMK AO2
KADC 151555Z AUTO 00000KT 10SM SCT044 M10/M12 A2983 RMK AO2
KADC 151535Z AUTO 00000KT 10SM CLR M10/M12 A2983 RMK AO2
KADC 151515Z AUTO 00000KT 10SM SCT045 M11/M12 A2983 RMK AO2
KADC 151455Z AUTO 00000KT 10SM BKN045 M11/M12 A2983 RMK AO2
KADC 151435Z AUTO 00000KT 10SM SCT070 M12/M12 A2983 RMK AO2
KADC 151415Z AUTO 00000KT 10SM SCT070 M12/M13 RMK AO2
KADC 151355Z AUTO 32004KT 10SM CLR M12/M13 A2985 RMK AO2
KADC 151335Z AUTO 30004KT 10SM CLR M12/M13 A2984 RMK AO2
KADC 151315Z AUTO 00000KT SCT095 M12/M13 A2985 RMK AO2
KADC 151255Z AUTO 28003KT 10SM SCT095 M11/M12 A2985 RMK AO2
KADC 151236Z AUTO 27003KT 10SM CLR M11/M12 A2985 RMK AO2
KADC 151215Z AUTO 29004KT 10SM CLR M11/M12 A2986 RMK AO2
KADC 151155Z AUTO 31004KT 10SM CLR M11/M12 A2987 RMK AO2
KADC 151135Z AUTO 30004KT 10SM SCT085 M10/M12 A2986 RMK AO2
KADC 151115Z AUTO 31004KT 10SM SCT026 OVC085 M09/M11 A2987 RMK AO2
KADC 151055Z AUTO 33003KT 10SM OVC024 M09/M10 A2988 RMK AO2
KADC 151035Z AUTO 29003KT 10SM BKN019 OVC024 M09/M11 A2988 RMK AO2
KADC 151015Z AUTO 30003KT 10SM SCT012 OVC019 M09/M10 A2989 RMK AO2
KADC 150955Z AUTO 30005KT 10SM OVC012 M08/M10 A2989 RMK AO2
KADC 150935Z AUTO 31005KT 10SM OVC012 M09/M10 A2990 RMK AO2
KADC 150915Z AUTO 31005KT 10SM OVC012 M08/M10 A2991 RMK AO2
KADC 150841Z AUTO 31004KT 10SM BKN016 OVC040 M09/M10 A2990 RMK AO2
KADC 150812Z AUTO 28004KT 10SM OVC040 M09/M10 A2991 RMK AO2
KADC 150755Z AUTO 00000KT 1SM OVC038 M09/M10 A2991 RMK AO2
KADC 150735Z AUTO 30003KT 10SM SCT011 OVC036 M09/M1 A2991 RMK AO2
KADC 150715Z AUTO 00000KT 10SM SCT011 OVC034 M09/M10 A2991 RMK AO2
KADC 150655Z AUTO 30003KT 10SM OVC034 M09/M10 A2991 RMK AO2
KADC 150635Z AUTO 00000KT 10SM SCT029 OVC036 M09/M10 A2992 RMK AO2
KADC 150615Z AUTO 31003KT 10SM SCT016 OVC036 M09/M10 A2993 RMK AO2
KADC 150555Z AUTO 30003KT 10SM -SN SCT021 OVC038 M09/M10 A2993 RMK AO2
KADC 150535Z AUTO 31004KT 10SM -SN SCT025 SCT031 OVC038 M09/M10 A2994 RMK AO2
KADC 150515Z AUTO 29003KT 7SM -SN SCT029 BKN034 OVC040 M09/M11 A2995 RMK AO2
KADC 150455Z AUTO 31003KT 4SM -SN SCT030 SCT035 OVC042 M09/M10 A2995 RMK AO2
KADC 150435Z AUTO 30003KT 2 1/2SM -SN BKN042 OVC048 M09/M11 A2996 RMK AO2
KADC 150415Z AUTO 27003KT 7SM -SN OVC047 M09/M11 A2996 RMK AO2
KADC 150356Z AUTO 28003KT 7SM -SN SCT023 OVC047 M09/M11 A2996 RMK AO2
KADC 150335Z AUTO 29003KT 10SM BKN023 OVC045 M09/M11 A2998 RMK AO2
KADC 150315Z AUTO 30005KT 10SM SCT019 BKN033 OVC045 M09/M11 A2998 RMK AO2
KADC 150255Z AUTO 31006KT 10SM -SN SCT016 BKN024 OVC035 M08/M10 A2998 RMK AO2
KADC 150235Z AUTO 29006KT 10SM UP SCT024 OVC040 M08/M10 A2999 RMK AO2
KADC 150215Z AUTO 31006KT 7SM -SN OVC046 M08/M10 A3000 RMK AO2
KADC 150155Z AUTO 30006KT 10SM -SN SCT027 OVC048 M08/M10 A2999 RMK AO2
KADC 150135Z AUTO 29006KT 7SM -SN OVC044 M08/M10 A3000 RMK AO2
KADC 150115Z AUTO 30006KT 7SM -SN OVC048 M08/M10 A3000 RMK AO2
KADC 150055Z AUTO 30005KT 7SM -SN SCT018 OVC048 M08/M11 A3000 RMK AO2
KADC 150035Z AUTO 31009KT 10SM UP OVC018 M08/M11 A3000 RMK AO2
KADC 150015Z AUTO 31011KT 10SM UP OVC018 M08/M11 A3000 RMK AO2
KADC 142356Z AUTO 31011KT 10SM UP OVC016 M08/M11 A3000 RMK AO2
KADC 142335Z AUTO 31011G18KT 10SM -SN OVC016 M08/M11 A3001 RMK AO2
KADC 142315Z AUTO 30012G17KT 10SM UP OVC016 M08/M11 A3001 RMK AO2
KADC 142255Z AUTO 31012G18KT 7SM -SN OVC016 M08/M11 A3000 RMK AO2
KADC 142235Z AUTO 31014G17KT 10SM UP OVC016 M08/M11 A3000 RMK AO2
KADC 142215Z AUTO 31012G19KT 10SM UP OVC018 M08/M11 A3000 RMK AO2
KADC 142155Z AUTO 32012G20KT 10SM -SN OVC018 M08/M11 A3000 RMK AO2
KADC 142135Z AUTO 29009KT 10SM UP OVC020 M07/M10 A2999 RMK AO2
KADC 142115Z AUTO 30013G21KT 10SM UP OVC020 M07/M11 A2999 RMK AO2
KADC 142055Z AUTO 30013G22KT 10SM UP OVC022 M07/M11 A2999 RMK AO2
KADC 142035Z AUTO 30009G14KT 5SM -SN OVC020 M07/M10 A2999 RMK AO2
KADC 142015Z AUTO 32015G20KT 5SM -SN BKN017 OVC022 M07/M10 A2999 RMK AO2
KADC 141955Z AUTO 32015KT 10SM -SN OVC017 M07/M10 A2998 RMK AO2
KADC 141935Z AUTO 32013KT 7SM -SN OVC019 M07/M10 A2999 RMK AO2
KADC 141915Z AUTO 31012KT 10SM UP OVC019 M07/M10 A2999 RMK AO2
KADC 141855Z AUTO 31011KT 10SM UP OVC017 M07/M10 A3000 RMK AO2
KADC 141835Z AUTO 32010G15KT 10SM UP OVC017 M07/M09 A3000 RMK AO2
KADC 141815Z AUTO 31010KT 10SM UP OVC015 M07/M09 A3000 RMK AO2
KADC 141755Z AUTO 28006KT 5SM -SN OVC015 M07/M09 A3000 RMK AO2
KADC 141735Z AUTO 30005KT 3SM -SN OVC015 M08/M09 A3001 RMK AO2
KADC 141715Z AUTO 30008KT 10SM UP OVC011 M08/M10 A3001 RMK AO2
KADC 141655Z AUTO 29006KT 10SM OVC011 M08/M10 A3001 RMK AO2
KADC 141635Z AUTO 29006KT 10SM OVC009 M09/M11 A3001 RMK AO2
KADC 141615Z AUTO 28004KT 10SM -SN BKN009 BKN046 M09/M11 A3000 RMK AO2
KADC 141555Z AUTO 29006KT 7SM -SN OVC011 M09/M11 A3000 RMK AO2
KADC 141535Z AUTO 30004KT 7SM -SN BKN011 OVC050 M10/M11 A3000 RMK AO2